sensor_id;sensor_type;location;lat;lon;timestamp;temperature;humidity
11989;DHT22;6054;50.966;7.094;2022-12-07T00:00:46;12.50;56.40
11989;DHT22;6054;50.966;7.094;2022-12-07T00:03:13;12.40;56.00
11989;DHT22;6054;50.966;7.094;2022-12-07T00:05:39;12.50;56.30
11989;DHT22;6054;50.966;7.094;2022-12-07T00:08:06;12.70;56.30
11989;DHT22;6054;50.966;7.094;2022-12-07T00:10:33;12.50;56.10
11989;DHT22;6054;50.966;7.094;2022-12-07T00:13:00;12.50;56.10
11989;DHT22;6054;50.966;7.094;2022-12-07T00:15:27;12.80;56.30
11989;DHT22;6054;50.966;7.094;2022-12-07T00:17:55;12.50;56.30
11989;DHT22;6054;50.966;7.094;2022-12-07T00:20:22;12.50;56.00
11989;DHT22;6054;50.966;7.094;2022-12-07T00:22:48;12.50;56.00
11989;DHT22;6054;50.966;7.094;2022-12-07T00:25:15;12.80;56.30
11989;DHT22;6054;50.966;7.094;2022-12-07T00:27:42;12.50;56.20
11989;DHT22;6054;50.966;7.094;2022-12-07T00:30:09;12.50;56.10
11989;DHT22;6054;50.966;7.094;2022-12-07T00:32:36;12.50;56.20
11989;DHT22;6054;50.966;7.094;2022-12-07T00:35:05;12.60;56.70
11989;DHT22;6054;50.966;7.094;2022-12-07T00:37:32;12.50;56.90
11989;DHT22;6054;50.966;7.094;2022-12-07T00:39:58;12.50;56.80
11989;DHT22;6054;50.966;7.094;2022-12-07T00:42:25;12.50;56.20
11989;DHT22;6054;50.966;7.094;2022-12-07T00:44:52;12.60;57.00
11989;DHT22;6054;50.966;7.094;2022-12-07T00:47:19;12.50;56.50
11989;DHT22;6054;50.966;7.094;2022-12-07T00:49:45;12.50;56.80
11989;DHT22;6054;50.966;7.094;2022-12-07T00:52:13;12.70;56.10
11989;DHT22;6054;50.966;7.094;2022-12-07T00:54:40;12.80;56.30
11989;DHT22;6054;50.966;7.094;2022-12-07T00:57:07;12.80;56.70
11989;DHT22;6054;50.966;7.094;2022-12-07T00:59:34;12.50;56.50
11989;DHT22;6054;50.966;7.094;2022-12-07T01:02:00;12.60;56.70
11989;DHT22;6054;50.966;7.094;2022-12-07T01:04:27;12.90;57.00
11989;DHT22;6054;50.966;7.094;2022-12-07T01:06:55;12.80;56.90
11989;DHT22;6054;50.966;7.094;2022-12-07T01:09:23;12.50;56.60
11989;DHT22;6054;50.966;7.094;2022-12-07T01:11:49;12.90;56.80
11989;DHT22;6054;50.966;7.094;2022-12-07T01:14:17;12.60;56.70
11989;DHT22;6054;50.966;7.094;2022-12-07T01:16:44;12.60;57.20
11989;DHT22;6054;50.966;7.094;2022-12-07T01:19:11;12.60;56.70
11989;DHT22;6054;50.966;7.094;2022-12-07T01:21:38;12.60;56.80
11989;DHT22;6054;50.966;7.094;2022-12-07T01:24:08;12.90;57.00
11989;DHT22;6054;50.966;7.094;2022-12-07T01:26:37;12.60;57.30
11989;DHT22;6054;50.966;7.094;2022-12-07T01:29:04;12.60;57.20
11989;DHT22;6054;50.966;7.094;2022-12-07T01:31:31;12.60;57.00
11989;DHT22;6054;50.966;7.094;2022-12-07T01:33:59;12.50;56.90
11989;DHT22;6054;50.966;7.094;2022-12-07T01:36:28;12.70;57.40
11989;DHT22;6054;50.966;7.094;2022-12-07T01:38:57;12.50;57.30
11989;DHT22;6054;50.966;7.094;2022-12-07T01:41:25;12.50;57.30
11989;DHT22;6054;50.966;7.094;2022-12-07T01:44:21;12.50;57.30
11989;DHT22;6054;50.966;7.094;2022-12-07T01:46:50;12.50;57.40
11989;DHT22;6054;50.966;7.094;2022-12-07T01:49:22;12.50;57.40
11989;DHT22;6054;50.966;7.094;2022-12-07T01:51:52;12.50;57.60
11989;DHT22;6054;50.966;7.094;2022-12-07T01:54:21;12.50;57.50
11989;DHT22;6054;50.966;7.094;2022-12-07T01:56:51;12.50;57.50
11989;DHT22;6054;50.966;7.094;2022-12-07T01:59:23;12.50;57.40
11989;DHT22;6054;50.966;7.094;2022-12-07T02:01:51;12.50;57.00
11989;DHT22;6054;50.966;7.094;2022-12-07T02:04:18;12.50;57.00
11989;DHT22;6054;50.966;7.094;2022-12-07T02:06:46;12.50;56.60
11989;DHT22;6054;50.966;7.094;2022-12-07T02:09:13;12.50;57.00
11989;DHT22;6054;50.966;7.094;2022-12-07T02:11:40;12.80;57.00
11989;DHT22;6054;50.966;7.094;2022-12-07T02:14:07;12.40;56.90
11989;DHT22;6054;50.966;7.094;2022-12-07T02:16:42;12.40;57.00
11989;DHT22;6054;50.966;7.094;2022-12-07T02:19:55;12.50;57.70
11989;DHT22;6054;50.966;7.094;2022-12-07T02:22:51;12.50;57.70
11989;DHT22;6054;50.966;7.094;2022-12-07T02:25:32;12.50;57.80
11989;DHT22;6054;50.966;7.094;2022-12-07T02:28:06;12.50;57.70
11989;DHT22;6054;50.966;7.094;2022-12-07T02:30:39;12.80;58.00
11989;DHT22;6054;50.966;7.094;2022-12-07T02:33:13;12.50;57.60
11989;DHT22;6054;50.966;7.094;2022-12-07T02:35:44;12.70;57.80
11989;DHT22;6054;50.966;7.094;2022-12-07T02:38:16;12.50;57.50
11989;DHT22;6054;50.966;7.094;2022-12-07T02:40:50;12.60;57.60
11989;DHT22;6054;50.966;7.094;2022-12-07T02:43:21;12.50;57.70
11989;DHT22;6054;50.966;7.094;2022-12-07T02:45:52;12.50;57.70
11989;DHT22;6054;50.966;7.094;2022-12-07T02:48:21;12.80;58.00
11989;DHT22;6054;50.966;7.094;2022-12-07T02:50:49;12.50;57.70
11989;DHT22;6054;50.966;7.094;2022-12-07T02:53:29;12.50;57.60
11989;DHT22;6054;50.966;7.094;2022-12-07T02:55:56;12.50;57.70
11989;DHT22;6054;50.966;7.094;2022-12-07T02:58:32;12.50;57.50
11989;DHT22;6054;50.966;7.094;2022-12-07T03:01:11;12.50;57.60
11989;DHT22;6054;50.966;7.094;2022-12-07T03:03:42;12.50;57.50
11989;DHT22;6054;50.966;7.094;2022-12-07T03:06:17;12.40;57.40
11989;DHT22;6054;50.966;7.094;2022-12-07T03:08:52;12.50;57.50
11989;DHT22;6054;50.966;7.094;2022-12-07T03:11:25;12.50;57.50
11989;DHT22;6054;50.966;7.094;2022-12-07T03:14:00;12.70;57.80
11989;DHT22;6054;50.966;7.094;2022-12-07T03:16:33;12.60;57.20
11989;DHT22;6054;50.966;7.094;2022-12-07T03:19:04;12.40;57.40
11989;DHT22;6054;50.966;7.094;2022-12-07T03:21:34;12.50;57.50
11989;DHT22;6054;50.966;7.094;2022-12-07T03:24:08;12.50;57.70
11989;DHT22;6054;50.966;7.094;2022-12-07T03:26:37;12.50;57.70
11989;DHT22;6054;50.966;7.094;2022-12-07T03:29:07;12.50;57.50
11989;DHT22;6054;50.966;7.094;2022-12-07T03:31:38;12.50;57.50
11989;DHT22;6054;50.966;7.094;2022-12-07T03:34:11;12.50;57.30
11989;DHT22;6054;50.966;7.094;2022-12-07T03:36:43;12.40;57.40
11989;DHT22;6054;50.966;7.094;2022-12-07T03:39:20;12.50;57.60
11989;DHT22;6054;50.966;7.094;2022-12-07T03:41:49;12.50;57.50
11989;DHT22;6054;50.966;7.094;2022-12-07T03:44:17;12.70;57.50
11989;DHT22;6054;50.966;7.094;2022-12-07T03:46:50;12.70;57.60
11989;DHT22;6054;50.966;7.094;2022-12-07T03:49:22;12.50;57.40
11989;DHT22;6054;50.966;7.094;2022-12-07T03:51:55;12.50;57.30
11989;DHT22;6054;50.966;7.094;2022-12-07T03:54:26;12.50;57.30
11989;DHT22;6054;50.966;7.094;2022-12-07T03:56:54;12.70;57.30
11989;DHT22;6054;50.966;7.094;2022-12-07T03:59:23;12.50;57.50
11989;DHT22;6054;50.966;7.094;2022-12-07T04:01:53;12.50;57.00
11989;DHT22;6054;50.966;7.094;2022-12-07T04:04:21;12.50;57.50
11989;DHT22;6054;50.966;7.094;2022-12-07T04:06:48;12.50;56.90
11989;DHT22;6054;50.966;7.094;2022-12-07T04:09:15;12.50;57.20
11989;DHT22;6054;50.966;7.094;2022-12-07T04:11:42;12.50;56.00
11989;DHT22;6054;50.966;7.094;2022-12-07T04:14:09;12.50;57.00
11989;DHT22;6054;50.966;7.094;2022-12-07T04:16:45;12.50;56.70
11989;DHT22;6054;50.966;7.094;2022-12-07T04:19:14;12.50;56.80
11989;DHT22;6054;50.966;7.094;2022-12-07T04:21:41;12.40;56.60
11989;DHT22;6054;50.966;7.094;2022-12-07T04:24:08;12.50;56.20
11989;DHT22;6054;50.966;7.094;2022-12-07T04:26:35;12.40;55.70
11989;DHT22;6054;50.966;7.094;2022-12-07T04:29:05;12.50;56.30
11989;DHT22;6054;50.966;7.094;2022-12-07T04:31:31;12.70;56.60
11989;DHT22;6054;50.966;7.094;2022-12-07T04:33:58;12.50;56.30
11989;DHT22;6054;50.966;7.094;2022-12-07T04:36:26;12.40;56.00
11989;DHT22;6054;50.966;7.094;2022-12-07T04:38:54;12.40;56.30
11989;DHT22;6054;50.966;7.094;2022-12-07T04:41:22;12.40;56.90
11989;DHT22;6054;50.966;7.094;2022-12-07T04:43:53;12.40;56.90
11989;DHT22;6054;50.966;7.094;2022-12-07T04:46:20;12.40;57.20
11989;DHT22;6054;50.966;7.094;2022-12-07T04:48:47;12.40;56.70
11989;DHT22;6054;50.966;7.094;2022-12-07T04:51:15;12.40;57.00
11989;DHT22;6054;50.966;7.094;2022-12-07T04:53:46;12.50;57.60
11989;DHT22;6054;50.966;7.094;2022-12-07T04:56:14;12.40;56.20
11989;DHT22;6054;50.966;7.094;2022-12-07T04:58:41;12.50;57.20
11989;DHT22;6054;50.966;7.094;2022-12-07T05:01:08;12.70;56.40
11989;DHT22;6054;50.966;7.094;2022-12-07T05:03:35;12.40;56.60
11989;DHT22;6054;50.966;7.094;2022-12-07T05:06:03;12.60;56.90
11989;DHT22;6054;50.966;7.094;2022-12-07T05:08:30;12.50;57.40
11989;DHT22;6054;50.966;7.094;2022-12-07T05:10:58;12.50;56.80
11989;DHT22;6054;50.966;7.094;2022-12-07T05:13:25;12.50;56.60
11989;DHT22;6054;50.966;7.094;2022-12-07T05:15:52;12.50;56.20
11989;DHT22;6054;50.966;7.094;2022-12-07T05:18:18;12.50;56.40
11989;DHT22;6054;50.966;7.094;2022-12-07T05:20:45;12.50;56.30
11989;DHT22;6054;50.966;7.094;2022-12-07T05:23:13;12.50;56.80
11989;DHT22;6054;50.966;7.094;2022-12-07T05:25:39;12.80;56.40
11989;DHT22;6054;50.966;7.094;2022-12-07T05:28:07;12.70;57.10
11989;DHT22;6054;50.966;7.094;2022-12-07T05:30:34;12.50;55.50
11989;DHT22;6054;50.966;7.094;2022-12-07T05:33:01;12.80;56.90
11989;DHT22;6054;50.966;7.094;2022-12-07T05:35:29;12.60;57.10
11989;DHT22;6054;50.966;7.094;2022-12-07T05:37:56;12.80;56.50
11989;DHT22;6054;50.966;7.094;2022-12-07T05:40:23;12.60;57.00
11989;DHT22;6054;50.966;7.094;2022-12-07T05:42:50;12.60;56.50
11989;DHT22;6054;50.966;7.094;2022-12-07T05:45:17;12.60;55.70
11989;DHT22;6054;50.966;7.094;2022-12-07T05:47:44;12.60;55.90
11989;DHT22;6054;50.966;7.094;2022-12-07T05:50:11;12.80;56.10
11989;DHT22;6054;50.966;7.094;2022-12-07T05:52:38;12.50;55.60
11989;DHT22;6054;50.966;7.094;2022-12-07T05:55:05;12.60;56.10
11989;DHT22;6054;50.966;7.094;2022-12-07T05:57:33;12.60;57.10
11989;DHT22;6054;50.966;7.094;2022-12-07T06:00:00;12.50;56.30
11989;DHT22;6054;50.966;7.094;2022-12-07T06:02:27;12.50;56.20
11989;DHT22;6054;50.966;7.094;2022-12-07T06:04:53;12.50;56.20
11989;DHT22;6054;50.966;7.094;2022-12-07T06:07:20;12.50;56.30
11989;DHT22;6054;50.966;7.094;2022-12-07T06:09:47;12.50;56.20
11989;DHT22;6054;50.966;7.094;2022-12-07T06:12:14;12.70;55.50
11989;DHT22;6054;50.966;7.094;2022-12-07T06:15:07;12.70;56.30
11989;DHT22;6054;50.966;7.094;2022-12-07T06:17:35;12.50;56.60
11989;DHT22;6054;50.966;7.094;2022-12-07T06:20:03;12.50;56.50
11989;DHT22;6054;50.966;7.094;2022-12-07T06:22:30;12.50;56.80
11989;DHT22;6054;50.966;7.094;2022-12-07T06:24:57;12.40;56.00
11989;DHT22;6054;50.966;7.094;2022-12-07T06:27:23;12.60;56.30
11989;DHT22;6054;50.966;7.094;2022-12-07T06:29:50;12.40;56.20
11989;DHT22;6054;50.966;7.094;2022-12-07T06:32:17;12.60;56.10
11989;DHT22;6054;50.966;7.094;2022-12-07T06:34:45;12.50;56.00
11989;DHT22;6054;50.966;7.094;2022-12-07T06:37:13;12.40;56.30
11989;DHT22;6054;50.966;7.094;2022-12-07T06:39:40;12.50;54.80
11989;DHT22;6054;50.966;7.094;2022-12-07T06:42:07;12.50;54.40
11989;DHT22;6054;50.966;7.094;2022-12-07T06:44:34;12.50;56.50
11989;DHT22;6054;50.966;7.094;2022-12-07T06:47:01;12.70;55.90
11989;DHT22;6054;50.966;7.094;2022-12-07T06:49:28;12.70;55.80
11989;DHT22;6054;50.966;7.094;2022-12-07T06:51:56;12.50;55.10
11989;DHT22;6054;50.966;7.094;2022-12-07T06:54:23;12.50;54.60
11989;DHT22;6054;50.966;7.094;2022-12-07T06:56:50;12.50;54.60
11989;DHT22;6054;50.966;7.094;2022-12-07T06:59:17;12.50;56.50
11989;DHT22;6054;50.966;7.094;2022-12-07T07:01:43;12.50;55.40
11989;DHT22;6054;50.966;7.094;2022-12-07T07:04:10;12.50;55.90
11989;DHT22;6054;50.966;7.094;2022-12-07T07:06:37;12.50;55.40
11989;DHT22;6054;50.966;7.094;2022-12-07T07:09:06;12.70;55.30
11989;DHT22;6054;50.966;7.094;2022-12-07T07:11:34;12.70;55.90
11989;DHT22;6054;50.966;7.094;2022-12-07T07:14:01;12.40;55.90
11989;DHT22;6054;50.966;7.094;2022-12-07T07:16:28;12.50;56.50
11989;DHT22;6054;50.966;7.094;2022-12-07T07:18:56;12.60;56.10
11989;DHT22;6054;50.966;7.094;2022-12-07T07:21:23;12.40;55.60
11989;DHT22;6054;50.966;7.094;2022-12-07T07:23:49;12.40;55.50
11989;DHT22;6054;50.966;7.094;2022-12-07T07:26:18;12.40;55.90
11989;DHT22;6054;50.966;7.094;2022-12-07T07:28:45;12.40;56.10
11989;DHT22;6054;50.966;7.094;2022-12-07T07:31:12;12.60;55.80
11989;DHT22;6054;50.966;7.094;2022-12-07T07:33:39;12.40;55.60
11989;DHT22;6054;50.966;7.094;2022-12-07T07:36:06;12.40;55.70
11989;DHT22;6054;50.966;7.094;2022-12-07T07:38:33;12.40;56.40
11989;DHT22;6054;50.966;7.094;2022-12-07T07:41:00;12.40;55.90
11989;DHT22;6054;50.966;7.094;2022-12-07T07:43:28;12.30;55.50
11989;DHT22;6054;50.966;7.094;2022-12-07T07:45:55;12.30;55.40
11989;DHT22;6054;50.966;7.094;2022-12-07T07:48:21;12.40;56.10
11989;DHT22;6054;50.966;7.094;2022-12-07T07:50:50;12.50;56.60
11989;DHT22;6054;50.966;7.094;2022-12-07T07:53:17;12.50;56.60
11989;DHT22;6054;50.966;7.094;2022-12-07T07:55:50;12.40;56.30
11989;DHT22;6054;50.966;7.094;2022-12-07T07:58:17;12.30;57.10
11989;DHT22;6054;50.966;7.094;2022-12-07T08:00:45;12.40;55.80
11989;DHT22;6054;50.966;7.094;2022-12-07T08:03:12;12.40;55.80
11989;DHT22;6054;50.966;7.094;2022-12-07T08:05:39;12.40;56.40
11989;DHT22;6054;50.966;7.094;2022-12-07T08:08:06;12.50;56.40
11989;DHT22;6054;50.966;7.094;2022-12-07T08:10:33;12.50;56.80
11989;DHT22;6054;50.966;7.094;2022-12-07T08:13:01;12.50;56.60
11989;DHT22;6054;50.966;7.094;2022-12-07T08:15:42;12.70;57.10
11989;DHT22;6054;50.966;7.094;2022-12-07T08:18:11;12.50;57.50
11989;DHT22;6054;50.966;7.094;2022-12-07T08:20:39;12.60;57.40
11989;DHT22;6054;50.966;7.094;2022-12-07T08:23:07;12.50;57.20
11989;DHT22;6054;50.966;7.094;2022-12-07T08:25:34;12.50;57.20
11989;DHT22;6054;50.966;7.094;2022-12-07T08:28:01;12.60;57.20
11989;DHT22;6054;50.966;7.094;2022-12-07T08:30:29;12.60;57.10
11989;DHT22;6054;50.966;7.094;2022-12-07T08:32:56;12.60;57.30
11989;DHT22;6054;50.966;7.094;2022-12-07T08:35:24;12.60;56.70
11989;DHT22;6054;50.966;7.094;2022-12-07T08:37:51;12.70;57.50
11989;DHT22;6054;50.966;7.094;2022-12-07T08:40:18;12.60;56.70
11989;DHT22;6054;50.966;7.094;2022-12-07T08:42:48;12.70;57.00
11989;DHT22;6054;50.966;7.094;2022-12-07T08:45:16;12.70;57.10
11989;DHT22;6054;50.966;7.094;2022-12-07T08:47:45;12.70;57.50
11989;DHT22;6054;50.966;7.094;2022-12-07T08:50:14;12.70;57.30
11989;DHT22;6054;50.966;7.094;2022-12-07T08:52:42;12.70;57.40
11989;DHT22;6054;50.966;7.094;2022-12-07T08:55:10;12.70;56.70
11989;DHT22;6054;50.966;7.094;2022-12-07T08:57:38;12.70;57.10
11989;DHT22;6054;50.966;7.094;2022-12-07T09:00:07;12.70;57.00
11989;DHT22;6054;50.966;7.094;2022-12-07T09:02:33;12.70;57.10
11989;DHT22;6054;50.966;7.094;2022-12-07T09:05:00;12.60;56.60
11989;DHT22;6054;50.966;7.094;2022-12-07T09:07:27;12.60;56.30
11989;DHT22;6054;50.966;7.094;2022-12-07T09:09:55;12.60;56.40
11989;DHT22;6054;50.966;7.094;2022-12-07T09:12:22;12.70;56.70
11989;DHT22;6054;50.966;7.094;2022-12-07T09:14:49;12.60;56.10
11989;DHT22;6054;50.966;7.094;2022-12-07T09:17:16;12.90;56.40
11989;DHT22;6054;50.966;7.094;2022-12-07T09:19:42;12.70;56.00
11989;DHT22;6054;50.966;7.094;2022-12-07T09:22:09;12.60;55.50
11989;DHT22;6054;50.966;7.094;2022-12-07T09:24:36;12.90;55.80
11989;DHT22;6054;50.966;7.094;2022-12-07T09:27:05;12.70;55.60
11989;DHT22;6054;50.966;7.094;2022-12-07T09:29:32;12.70;56.30
11989;DHT22;6054;50.966;7.094;2022-12-07T09:31:59;12.70;56.70
11989;DHT22;6054;50.966;7.094;2022-12-07T09:34:26;12.90;57.10
11989;DHT22;6054;50.966;7.094;2022-12-07T09:36:53;12.70;56.40
11989;DHT22;6054;50.966;7.094;2022-12-07T09:39:20;12.70;56.30
11989;DHT22;6054;50.966;7.094;2022-12-07T09:41:48;12.80;56.20
11989;DHT22;6054;50.966;7.094;2022-12-07T09:44:19;12.80;57.30
11989;DHT22;6054;50.966;7.094;2022-12-07T09:57:01;12.80;57.10
11989;DHT22;6054;50.966;7.094;2022-12-07T09:59:29;12.90;56.20
11989;DHT22;6054;50.966;7.094;2022-12-07T10:02:20;12.80;56.10
11989;DHT22;6054;50.966;7.094;2022-12-07T10:04:48;12.80;57.10
11989;DHT22;6054;50.966;7.094;2022-12-07T10:07:15;12.80;56.50
11989;DHT22;6054;50.966;7.094;2022-12-07T10:09:42;13.10;55.80
11989;DHT22;6054;50.966;7.094;2022-12-07T10:12:10;12.80;56.90
11989;DHT22;6054;50.966;7.094;2022-12-07T10:14:48;12.90;57.60
11989;DHT22;6054;50.966;7.094;2022-12-07T10:17:34;12.90;56.80
11989;DHT22;6054;50.966;7.094;2022-12-07T10:20:21;13.00;57.60
11989;DHT22;6054;50.966;7.094;2022-12-07T10:23:04;13.00;57.30
11989;DHT22;6054;50.966;7.094;2022-12-07T10:25:33;13.00;57.10
11989;DHT22;6054;50.966;7.094;2022-12-07T10:28:13;13.00;57.10
11989;DHT22;6054;50.966;7.094;2022-12-07T10:30:54;13.00;56.70
11989;DHT22;6054;50.966;7.094;2022-12-07T10:33:34;13.30;57.00
11989;DHT22;6054;50.966;7.094;2022-12-07T10:36:17;13.00;56.30
11989;DHT22;6054;50.966;7.094;2022-12-07T10:38:46;13.00;56.60
11989;DHT22;6054;50.966;7.094;2022-12-07T10:41:13;13.00;56.70
11989;DHT22;6054;50.966;7.094;2022-12-07T10:43:47;13.00;55.70
11989;DHT22;6054;50.966;7.094;2022-12-07T10:46:44;13.00;57.10
11989;DHT22;6054;50.966;7.094;2022-12-07T10:52:30;13.20;57.30
11989;DHT22;6054;50.966;7.094;2022-12-07T10:55:11;13.00;57.10
11989;DHT22;6054;50.966;7.094;2022-12-07T10:57:47;13.00;57.10
11989;DHT22;6054;50.966;7.094;2022-12-07T11:00:19;13.10;57.10
11989;DHT22;6054;50.966;7.094;2022-12-07T11:03:05;13.10;57.00
11989;DHT22;6054;50.966;7.094;2022-12-07T11:05:39;13.10;57.00
11989;DHT22;6054;50.966;7.094;2022-12-07T11:08:18;13.10;57.00
11989;DHT22;6054;50.966;7.094;2022-12-07T11:10:52;13.20;57.70
11989;DHT22;6054;50.966;7.094;2022-12-07T11:13:28;13.20;57.20
11989;DHT22;6054;50.966;7.094;2022-12-07T11:16:04;13.30;57.30
11989;DHT22;6054;50.966;7.094;2022-12-07T11:18:43;13.40;57.20
11989;DHT22;6054;50.966;7.094;2022-12-07T11:21:16;13.30;56.90
11989;DHT22;6054;50.966;7.094;2022-12-07T11:23:49;13.30;56.30
11989;DHT22;6054;50.966;7.094;2022-12-07T11:26:29;13.30;56.00
11989;DHT22;6054;50.966;7.094;2022-12-07T11:29:14;13.30;56.60
11989;DHT22;6054;50.966;7.094;2022-12-07T11:31:57;13.40;56.40
11989;DHT22;6054;50.966;7.094;2022-12-07T11:34:36;13.60;56.60
11989;DHT22;6054;50.966;7.094;2022-12-07T11:37:09;13.30;56.50
11989;DHT22;6054;50.966;7.094;2022-12-07T11:39:47;13.60;56.50
11989;DHT22;6054;50.966;7.094;2022-12-07T11:42:22;13.40;55.90
11989;DHT22;6054;50.966;7.094;2022-12-07T11:44:53;13.30;55.60
11989;DHT22;6054;50.966;7.094;2022-12-07T11:47:27;13.30;55.40
11989;DHT22;6054;50.966;7.094;2022-12-07T11:50:05;13.40;56.60
11989;DHT22;6054;50.966;7.094;2022-12-07T11:52:44;13.40;55.80
11989;DHT22;6054;50.966;7.094;2022-12-07T11:55:20;13.30;55.20
11989;DHT22;6054;50.966;7.094;2022-12-07T11:57:52;13.40;55.10
11989;DHT22;6054;50.966;7.094;2022-12-07T12:00:20;13.60;55.80
11989;DHT22;6054;50.966;7.094;2022-12-07T12:02:52;13.40;54.30
11989;DHT22;6054;50.966;7.094;2022-12-07T12:05:24;13.30;55.90
11989;DHT22;6054;50.966;7.094;2022-12-07T12:07:58;13.30;55.80
11989;DHT22;6054;50.966;7.094;2022-12-07T12:10:35;13.40;56.30
11989;DHT22;6054;50.966;7.094;2022-12-07T12:13:34;13.60;56.50
11989;DHT22;6054;50.966;7.094;2022-12-07T12:16:18;13.40;56.30
11989;DHT22;6054;50.966;7.094;2022-12-07T12:19:00;13.40;56.40
11989;DHT22;6054;50.966;7.094;2022-12-07T12:21:30;13.40;56.20
11989;DHT22;6054;50.966;7.094;2022-12-07T12:24:00;13.40;55.20
11989;DHT22;6054;50.966;7.094;2022-12-07T12:26:31;13.70;55.30
11989;DHT22;6054;50.966;7.094;2022-12-07T12:29:00;13.40;54.80
11989;DHT22;6054;50.966;7.094;2022-12-07T12:31:34;13.40;55.70
11989;DHT22;6054;50.966;7.094;2022-12-07T12:34:03;13.40;55.80
11989;DHT22;6054;50.966;7.094;2022-12-07T12:36:46;13.40;55.20
11989;DHT22;6054;50.966;7.094;2022-12-07T12:39:14;13.50;55.60
11989;DHT22;6054;50.966;7.094;2022-12-07T12:42:00;13.50;55.40
11989;DHT22;6054;50.966;7.094;2022-12-07T12:50:25;13.80;56.30
11989;DHT22;6054;50.966;7.094;2022-12-07T12:53:02;13.60;55.90
11989;DHT22;6054;50.966;7.094;2022-12-07T12:58:38;13.60;55.50
11989;DHT22;6054;50.966;7.094;2022-12-07T13:01:40;13.60;55.60
11989;DHT22;6054;50.966;7.094;2022-12-07T13:07:12;13.60;55.50
11989;DHT22;6054;50.966;7.094;2022-12-07T13:09:44;13.50;55.10
11989;DHT22;6054;50.966;7.094;2022-12-07T13:12:14;13.60;55.30
11989;DHT22;6054;50.966;7.094;2022-12-07T13:14:53;13.60;55.40
11989;DHT22;6054;50.966;7.094;2022-12-07T13:17:56;13.70;55.70
11989;DHT22;6054;50.966;7.094;2022-12-07T13:20:46;13.70;55.70
11989;DHT22;6054;50.966;7.094;2022-12-07T13:23:18;13.80;55.60
11989;DHT22;6054;50.966;7.094;2022-12-07T13:25:54;13.80;55.50
11989;DHT22;6054;50.966;7.094;2022-12-07T13:28:22;13.80;55.20
11989;DHT22;6054;50.966;7.094;2022-12-07T13:31:24;14.00;54.80
11989;DHT22;6054;50.966;7.094;2022-12-07T13:33:52;13.80;54.90
11989;DHT22;6054;50.966;7.094;2022-12-07T13:36:21;13.80;54.10
11989;DHT22;6054;50.966;7.094;2022-12-07T13:38:52;13.80;54.80
11989;DHT22;6054;50.966;7.094;2022-12-07T13:41:22;13.80;54.70
11989;DHT22;6054;50.966;7.094;2022-12-07T13:43:52;14.10;54.60
11989;DHT22;6054;50.966;7.094;2022-12-07T13:46:26;14.10;54.70
11989;DHT22;6054;50.966;7.094;2022-12-07T13:48:56;13.80;54.40
11989;DHT22;6054;50.966;7.094;2022-12-07T13:51:25;13.80;53.50
11989;DHT22;6054;50.966;7.094;2022-12-07T13:53:54;13.90;54.10
11989;DHT22;6054;50.966;7.094;2022-12-07T13:56:31;14.10;54.50
11989;DHT22;6054;50.966;7.094;2022-12-07T13:58:58;13.80;54.30
11989;DHT22;6054;50.966;7.094;2022-12-07T14:01:26;13.90;54.10
11989;DHT22;6054;50.966;7.094;2022-12-07T14:03:53;13.90;54.40
11989;DHT22;6054;50.966;7.094;2022-12-07T14:06:24;14.00;53.70
11989;DHT22;6054;50.966;7.094;2022-12-07T14:09:17;13.90;54.00
11989;DHT22;6054;50.966;7.094;2022-12-07T14:11:48;13.80;54.10
11989;DHT22;6054;50.966;7.094;2022-12-07T14:14:17;13.80;54.10
11989;DHT22;6054;50.966;7.094;2022-12-07T14:16:59;13.80;54.10
11989;DHT22;6054;50.966;7.094;2022-12-07T14:19:43;13.80;54.30
11989;DHT22;6054;50.966;7.094;2022-12-07T14:22:20;13.80;54.30
11989;DHT22;6054;50.966;7.094;2022-12-07T14:24:48;13.80;54.40
11989;DHT22;6054;50.966;7.094;2022-12-07T14:27:22;14.00;54.20
11989;DHT22;6054;50.966;7.094;2022-12-07T14:29:51;13.80;54.10
11989;DHT22;6054;50.966;7.094;2022-12-07T14:32:21;13.80;53.60
11989;DHT22;6054;50.966;7.094;2022-12-07T14:34:58;14.10;54.50
11989;DHT22;6054;50.966;7.094;2022-12-07T14:37:26;13.90;54.40
11989;DHT22;6054;50.966;7.094;2022-12-07T14:39:53;13.80;54.10
11989;DHT22;6054;50.966;7.094;2022-12-07T14:42:23;13.90;53.80
11989;DHT22;6054;50.966;7.094;2022-12-07T14:44:51;13.90;54.20
11989;DHT22;6054;50.966;7.094;2022-12-07T14:47:17;14.10;53.30
11989;DHT22;6054;50.966;7.094;2022-12-07T14:49:44;13.90;53.40
11989;DHT22;6054;50.966;7.094;2022-12-07T14:52:15;13.90;53.10
11989;DHT22;6054;50.966;7.094;2022-12-07T14:54:42;13.80;53.70
11989;DHT22;6054;50.966;7.094;2022-12-07T14:57:10;13.90;53.30
11989;DHT22;6054;50.966;7.094;2022-12-07T14:59:38;13.90;53.30
11989;DHT22;6054;50.966;7.094;2022-12-07T15:02:06;14.20;53.60
11989;DHT22;6054;50.966;7.094;2022-12-07T15:04:33;13.80;53.20
11989;DHT22;6054;50.966;7.094;2022-12-07T15:07:02;13.80;53.30
11989;DHT22;6054;50.966;7.094;2022-12-07T15:09:28;13.80;53.70
11989;DHT22;6054;50.966;7.094;2022-12-07T15:11:55;13.80;53.40
11989;DHT22;6054;50.966;7.094;2022-12-07T15:14:22;13.80;53.40
11989;DHT22;6054;50.966;7.094;2022-12-07T15:16:50;13.80;52.80
11989;DHT22;6054;50.966;7.094;2022-12-07T15:19:18;14.00;53.30
11989;DHT22;6054;50.966;7.094;2022-12-07T15:21:48;14.00;53.90
11989;DHT22;6054;50.966;7.094;2022-12-07T15:24:15;13.90;53.60
11989;DHT22;6054;50.966;7.094;2022-12-07T15:26:42;13.90;53.40
11989;DHT22;6054;50.966;7.094;2022-12-07T15:29:10;13.90;53.40
11989;DHT22;6054;50.966;7.094;2022-12-07T15:31:37;13.80;53.60
11989;DHT22;6054;50.966;7.094;2022-12-07T15:34:05;13.90;53.20
11989;DHT22;6054;50.966;7.094;2022-12-07T15:36:33;13.80;53.00
11989;DHT22;6054;50.966;7.094;2022-12-07T15:39:00;13.80;53.30
11989;DHT22;6054;50.966;7.094;2022-12-07T15:41:27;13.80;53.00
11989;DHT22;6054;50.966;7.094;2022-12-07T15:43:54;13.80;52.90
11989;DHT22;6054;50.966;7.094;2022-12-07T15:49:12;13.80;53.40
11989;DHT22;6054;50.966;7.094;2022-12-07T15:51:40;13.70;52.80
11989;DHT22;6054;50.966;7.094;2022-12-07T15:54:06;13.70;52.50
11989;DHT22;6054;50.966;7.094;2022-12-07T15:56:33;13.90;52.10
11989;DHT22;6054;50.966;7.094;2022-12-07T15:59:00;13.60;52.00
11989;DHT22;6054;50.966;7.094;2022-12-07T16:01:27;13.50;52.10
11989;DHT22;6054;50.966;7.094;2022-12-07T16:03:54;13.40;52.20
11989;DHT22;6054;50.966;7.094;2022-12-07T16:06:22;13.40;52.30
11989;DHT22;6054;50.966;7.094;2022-12-07T16:08:48;13.50;52.40
11989;DHT22;6054;50.966;7.094;2022-12-07T16:11:15;13.50;52.40
11989;DHT22;6054;50.966;7.094;2022-12-07T16:13:42;13.30;52.40
11989;DHT22;6054;50.966;7.094;2022-12-07T16:16:11;13.30;52.50
11989;DHT22;6054;50.966;7.094;2022-12-07T16:18:38;13.30;53.40
11989;DHT22;6054;50.966;7.094;2022-12-07T16:21:05;13.30;52.90
11989;DHT22;6054;50.966;7.094;2022-12-07T16:23:34;13.30;53.10
11989;DHT22;6054;50.966;7.094;2022-12-07T16:26:05;13.30;52.80
11989;DHT22;6054;50.966;7.094;2022-12-07T16:28:32;13.30;53.50
11989;DHT22;6054;50.966;7.094;2022-12-07T16:31:01;13.50;53.50
11989;DHT22;6054;50.966;7.094;2022-12-07T16:33:28;13.30;53.50